Time;durP1;ratioP1;P1;durP2;ratioP2;P2;SDS_P1;SDS_P2;PMS_P1;PMS_P2;Temp;Humidity;BMP_temperature;BMP_pressure;BME280_temperature;BME280_humidity;BME280_pressure;Samples;Min_cycle;Max_cycle;Signal;HPM_P1;HPM_P2
2021/11/03 00:00:15;;;;;;;;;5.00;5.00;;;;;18.45;48.74;99473.22;5057223;28;45391;-64
2021/11/03 00:02:43;;;;;;;;;7.33;6.67;;;;;18.45;48.97;99481.19;5057015;28;45436;-70
2021/11/03 00:05:13;;;;;;;;;4.67;4.67;;;;;18.45;48.56;99470.56;5056821;28;46975;-70
2021/11/03 00:07:39;;;;;;;;;5.67;3.67;;;;;18.44;48.73;99467.06;5056889;28;45354;-72
2021/11/03 00:10:07;;;;;;;;;5.33;5.33;;;;;18.45;48.61;99465.22;5057159;28;45370;-70
2021/11/03 00:12:32;;;;;;;;;5.67;5.33;;;;;18.44;48.76;99468.84;5056993;28;45629;-70
2021/11/03 00:14:58;;;;;;;;;4.67;4.67;;;;;18.45;48.72;99470.56;5056503;28;46109;-64
2021/11/03 00:17:25;;;;;;;;;4.00;4.00;;;;;18.44;48.65;99461.72;5056740;28;45223;-71
2021/11/03 00:19:50;;;;;;;;;5.00;4.33;;;;;18.44;48.68;99468.84;5056671;28;45388;-65
2021/11/03 00:22:15;;;;;;;;;6.00;5.00;;;;;18.45;48.95;99459.91;5057065;28;45465;-70
2021/11/03 00:24:42;;;;;;;;;4.33;4.33;;;;;18.44;48.70;99460.84;5056652;28;46836;-71
2021/11/03 00:27:08;;;;;;;;;4.67;4.67;;;;;18.43;48.63;99456.44;5055629;28;45749;-70
2021/11/03 00:29:33;;;;;;;;;5.00;5.00;;;;;18.43;48.77;99445.78;5056477;28;45729;-76
2021/11/03 00:31:58;;;;;;;;;5.00;5.00;;;;;18.44;48.42;99455.53;5056445;28;45398;-67
2021/11/03 00:34:24;;;;;;;;;5.00;5.00;;;;;18.44;48.75;99444.88;5056066;28;46424;-77
2021/11/03 00:36:49;;;;;;;;;9.33;6.00;;;;;18.44;48.74;99444.88;5056387;28;45421;-71
2021/11/03 00:39:15;;;;;;;;;6.00;5.67;;;;;18.43;48.74;99440.47;5056631;28;45245;-73
2021/11/03 00:41:41;;;;;;;;;3.67;3.67;;;;;18.44;48.77;99439.56;5056847;28;45562;-64
2021/11/03 00:44:06;;;;;;;;;6.67;6.67;;;;;18.42;48.57;99434.31;5056152;28;46945;-72
2021/11/03 00:46:32;;;;;;;;;2.00;2.00;;;;;18.43;48.91;99438.69;5056399;28;45317;-76
2021/11/03 00:48:57;;;;;;;;;4.33;4.33;;;;;18.43;48.63;99436.03;5056570;28;45224;-74
2021/11/03 00:51:22;;;;;;;;;5.67;5.67;;;;;18.43;48.66;99433.38;5056634;28;45225;-74
2021/11/03 00:53:48;;;;;;;;;5.67;4.00;;;;;18.44;48.70;99431.59;5056071;28;46114;-76
2021/11/03 00:56:13;;;;;;;;;6.00;4.67;;;;;18.44;48.65;99431.59;5056480;28;45385;-76
2021/11/03 00:58:39;;;;;;;;;6.67;5.00;;;;;18.44;48.82;99431.59;5056344;28;45308;-75
2021/11/03 01:01:05;;;;;;;;;6.00;5.67;;;;;18.43;48.76;99422.72;5056611;28;45369;-78
2021/11/03 01:03:30;;;;;;;;;6.00;6.00;;;;;18.44;48.53;99426.25;5055987;28;47670;-73
2021/11/03 01:05:56;;;;;;;;;5.00;3.67;;;;;18.44;48.74;99420.94;5055251;28;45375;-64
2021/11/03 01:08:22;;;;;;;;;5.33;4.33;;;;;18.44;48.70;99423.59;5055857;28;45350;-67
2021/11/03 01:10:50;;;;;;;;;5.00;4.67;;;;;18.43;48.61;99422.72;5056331;28;45354;-77
2021/11/03 01:13:18;;;;;;;;;7.00;5.00;;;;;18.43;48.69;99417.41;5055833;28;47039;-77
2021/11/03 01:15:45;;;;;;;;;5.33;5.33;;;;;18.44;48.73;99418.28;5056055;28;45416;-65
2021/11/03 01:18:10;;;;;;;;;7.00;5.00;;;;;18.44;48.86;99415.63;5056289;28;45283;-70
2021/11/03 01:20:36;;;;;;;;;5.33;5.00;;;;;18.44;48.92;99420.94;5056314;28;45446;-74
2021/11/03 01:23:03;;;;;;;;;6.00;5.00;;;;;18.44;48.73;99420.94;5055888;28;45377;-64
2021/11/03 01:25:30;;;;;;;;;6.33;6.00;;;;;18.44;48.89;99421.81;5056019;28;45431;-67
2021/11/03 01:27:55;;;;;;;;;6.00;5.00;;;;;18.42;48.88;99421.00;5055582;28;45345;-72
2021/11/03 01:30:23;;;;;;;;;7.00;5.33;;;;;18.44;48.89;99426.25;5055923;28;45228;-69
2021/11/03 01:32:49;;;;;;;;;3.00;3.00;;;;;18.44;49.02;99428.94;5055583;28;47078;-72
2021/11/03 01:35:16;;;;;;;;;4.00;4.00;;;;;18.43;48.65;99424.50;5055381;28;45361;-64
2021/11/03 01:37:42;;;;;;;;;5.00;5.00;;;;;18.44;48.75;99439.56;5056109;28;45343;-64
2021/11/03 01:40:12;;;;;;;;;5.00;5.00;;;;;18.43;48.83;99440.47;5055846;28;45493;-64
2021/11/03 01:42:38;;;;;;;;;5.00;5.00;;;;;18.43;48.90;99437.81;5056950;28;46303;-64
2021/11/03 01:45:06;;;;;;;;;4.67;4.67;;;;;18.42;48.59;99442.28;5058722;28;45319;-68
2021/11/03 01:47:43;;;;;;;;;6.00;6.00;;;;;18.43;48.81;99440.47;5059107;28;45413;-68
2021/11/03 01:50:20;;;;;;;;;4.67;4.67;;;;;18.43;48.86;99440.47;5059188;28;45410;-64
2021/11/03 01:52:50;;;;;;;;;4.33;4.00;;;;;18.42;48.83;99434.31;5058859;28;47183;-75
2021/11/03 01:55:16;;;;;;;;;7.67;6.67;;;;;18.42;48.65;99438.75;5058808;28;45296;-66
2021/11/03 01:57:46;;;;;;;;;5.00;4.67;;;;;18.42;48.67;99444.06;5059023;28;45394;-63
2021/11/03 02:00:17;;;;;;;;;4.67;4.67;;;;;18.43;48.86;99440.47;5059329;28;45263;-70
2021/11/03 02:02:43;;;;;;;;;5.00;5.00;;;;;18.41;49.10;99432.56;5058907;28;45392;-68
2021/11/03 02:05:11;;;;;;;;;5.33;3.67;;;;;18.40;49.03;99437.00;5058343;28;45481;-73
2021/11/03 02:07:38;;;;;;;;;6.00;4.67;;;;;18.40;48.60;99437.00;5059032;28;45233;-70
2021/11/03 02:10:05;;;;;;;;;5.67;5.00;;;;;18.41;48.66;99432.56;5059103;28;45402;-73
2021/11/03 02:12:30;;;;;;;;;4.33;4.33;;;;;18.40;48.78;99437.00;5040279;28;48337;-78
2021/11/03 02:14:57;;;;;;;;;5.00;5.00;;;;;18.41;48.69;99429.91;5058363;28;45395;-72
2021/11/03 02:17:24;;;;;;;;;5.67;4.00;;;;;18.43;48.98;99435.16;5058651;28;45354;-63
2021/11/03 02:19:51;;;;;;;;;4.67;4.67;;;;;18.42;48.96;99438.75;5058831;28;45321;-65
2021/11/03 02:22:28;;;;;;;;;5.00;5.00;;;;;18.41;48.78;99437.88;5058378;28;47117;-64
2021/11/03 02:24:54;;;;;;;;;4.00;3.67;;;;;18.41;48.95;99432.56;5058200;28;45231;-64
2021/11/03 02:27:21;;;;;;;;;5.33;5.33;;;;;18.40;49.09;99437.00;5058413;28;45399;-63
2021/11/03 02:29:47;;;;;;;;;4.00;3.67;;;;;18.40;48.75;99431.69;5058794;28;45438;-75
2021/11/03 02:32:18;;;;;;;;;7.00;5.00;;;;;18.39;48.67;99427.31;5058300;28;46005;-64
2021/11/03 02:34:43;;;;;;;;;3.00;3.00;;;;;18.40;48.81;99430.84;5058323;28;45423;-63
2021/11/03 02:37:27;;;;;;;;;3.00;3.00;;;;;18.40;48.91;99430.84;5058582;28;45428;-63
2021/11/03 02:40:21;;;;;;;;;4.00;3.00;;;;;18.40;48.72;99433.50;5058482;28;45240;-63
2021/11/03 02:42:51;;;;;;;;;6.00;4.00;;;;;18.40;48.95;99430.84;5058057;28;47363;-63
2021/11/03 02:45:23;;;;;;;;;5.00;4.00;;;;;18.40;48.82;99442.31;5058065;28;46160;-63
2021/11/03 02:47:48;;;;;;;;;3.67;3.00;;;;;18.39;49.03;99431.75;5058259;28;45177;-63
2021/11/03 02:50:14;;;;;;;;;4.00;4.00;;;;;18.40;48.83;99438.81;5058535;28;45268;-64
2021/11/03 02:52:40;;;;;;;;;5.00;3.67;;;;;18.39;48.71;99437.94;5057988;28;46149;-63
2021/11/03 02:55:09;;;;;;;;;5.33;4.67;;;;;18.39;48.80;99439.72;5057904;28;46126;-63
2021/11/03 02:57:35;;;;;;;;;4.33;3.67;;;;;18.39;48.88;99435.28;5057669;28;45319;-63
2021/11/03 03:00:04;;;;;;;;;3.00;3.00;;;;;18.40;48.87;99438.81;5058160;28;45236;-62
2021/11/03 03:02:30;;;;;;;;;5.33;4.67;;;;;18.39;49.05;99439.72;5057610;28;46982;-62
2021/11/03 03:04:55;;;;;;;;;3.33;3.33;;;;;18.40;48.85;99446.81;5057921;28;45580;-63
2021/11/03 03:07:21;;;;;;;;;3.00;3.00;;;;;18.40;49.00;99444.13;5039846;28;45872;-63
2021/11/03 03:09:47;;;;;;;;;3.00;3.00;;;;;18.39;48.88;99445.94;5058223;28;45670;-63
2021/11/03 03:12:17;;;;;;;;;4.00;4.00;;;;;18.38;48.81;99449.50;5057953;28;45353;-63
2021/11/03 03:14:45;;;;;;;;;3.33;3.33;;;;;18.39;48.70;99447.72;5057574;28;45442;-63
2021/11/03 03:17:13;;;;;;;;;5.00;4.00;;;;;18.39;49.07;99453.91;5057877;28;45549;-62
2021/11/03 03:19:41;;;;;;;;;3.00;3.00;;;;;18.38;48.96;99454.81;5057738;28;45429;-62
2021/11/03 03:22:07;;;;;;;;;3.67;3.67;;;;;18.39;48.72;99453.03;5057389;28;46253;-64
2021/11/03 03:24:32;;;;;;;;;3.00;3.00;;;;;18.39;48.86;99450.38;5057380;28;45552;-63
2021/11/03 03:26:58;;;;;;;;;4.67;4.67;;;;;18.38;48.70;99454.81;5057673;28;45332;-63
2021/11/03 03:29:23;;;;;;;;;5.00;5.00;;;;;18.38;48.90;99460.13;5057903;28;45486;-63
2021/11/03 03:31:49;;;;;;;;;4.00;3.00;;;;;18.38;48.92;99465.44;5057229;28;45915;-62
2021/11/03 03:34:18;;;;;;;;;5.67;5.00;;;;;18.38;48.87;99464.63;5056825;28;45220;-62
2021/11/03 03:36:45;;;;;;;;;4.67;3.67;;;;;18.37;48.54;99469.06;5057459;28;45421;-65
2021/11/03 03:39:13;;;;;;;;;3.00;3.00;;;;;18.37;48.90;99469.06;5057512;28;45391;-63
2021/11/03 03:41:42;;;;;;;;;5.00;3.33;;;;;18.39;48.85;99469.00;5056791;28;45477;-64
2021/11/03 03:44:07;;;;;;;;;3.67;3.67;;;;;18.38;48.79;99469.94;5057187;28;45448;-64
2021/11/03 03:46:33;;;;;;;;;3.67;3.67;;;;;18.37;48.82;99474.38;5057184;28;45321;-63
2021/11/03 03:48:59;;;;;;;;;2.67;2.67;;;;;18.37;48.77;99476.16;5057543;28;45378;-64
2021/11/03 03:51:25;;;;;;;;;5.00;4.00;;;;;18.37;48.94;99477.03;5056958;28;46059;-63
2021/11/03 03:53:50;;;;;;;;;2.67;2.67;;;;;18.38;48.72;99480.56;5057392;28;45521;-63
2021/11/03 03:56:17;;;;;;;;;4.00;4.00;;;;;18.38;48.66;99485.91;5057280;28;45369;-76
2021/11/03 03:58:44;;;;;;;;;4.67;3.67;;;;;18.39;48.91;99482.28;5057464;28;45220;-68
2021/11/03 04:01:12;;;;;;;;;3.33;3.33;;;;;18.38;48.72;99481.41;5056869;28;46252;-63
2021/11/03 04:03:38;;;;;;;;;4.00;3.33;;;;;18.38;48.65;99492.06;5056708;28;45375;-65
2021/11/03 04:06:03;;;;;;;;;4.67;3.67;;;;;18.38;48.78;99491.22;5056303;28;45511;-70
2021/11/03 04:08:29;;;;;;;;;4.00;4.00;;;;;18.37;49.03;99493.00;5057115;28;45404;-69
2021/11/03 04:10:55;;;;;;;;;3.00;3.00;;;;;18.38;48.48;99491.22;5056690;28;46098;-64
2021/11/03 04:13:23;;;;;;;;;2.67;2.33;;;;;18.37;48.74;99493.00;5056896;28;45193;-63
2021/11/03 04:15:48;;;;;;;;;4.00;4.00;;;;;18.38;48.92;99491.22;5056711;28;45441;-63
2021/11/03 04:18:14;;;;;;;;;4.00;2.67;;;;;18.37;48.57;99495.66;5057002;28;45586;-67
2021/11/03 04:20:39;;;;;;;;;2.33;2.33;;;;;18.36;48.81;99491.25;5056940;28;46117;-67
2021/11/03 04:23:05;;;;;;;;;3.33;3.33;;;;;18.36;48.64;99499.22;5056544;28;45285;-69
2021/11/03 04:25:31;;;;;;;;;4.33;3.33;;;;;18.36;48.89;99501.88;5056752;28;45225;-65
2021/11/03 04:27:57;;;;;;;;;5.67;4.33;;;;;18.36;48.75;99501.88;5056829;28;45498;-64
2021/11/03 04:30:23;;;;;;;;;3.00;3.00;;;;;18.35;48.86;99505.47;5056536;28;46225;-64
2021/11/03 04:32:48;;;;;;;;;1.33;1.33;;;;;18.37;48.92;99510.75;5056494;28;45454;-68
2021/11/03 04:35:14;;;;;;;;;3.00;3.00;;;;;18.36;49.06;99520.50;5056387;28;45558;-63
2021/11/03 04:37:40;;;;;;;;;3.67;3.67;;;;;18.37;48.98;99516.06;5056931;28;45429;-68
2021/11/03 04:40:11;;;;;;;;;3.33;3.33;;;;;18.37;48.93;99526.72;5056289;28;46960;-72
2021/11/03 04:42:36;;;;;;;;;1.67;1.67;;;;;18.37;48.85;99526.72;5056585;28;45412;-65
2021/11/03 04:45:03;;;;;;;;;2.67;2.67;;;;;18.37;48.66;99521.38;5056372;28;45473;-68
2021/11/03 04:47:28;;;;;;;;;3.67;3.67;;;;;18.37;48.88;99527.59;5056629;28;45294;-70
2021/11/03 04:49:57;;;;;;;;;3.67;3.67;;;;;18.37;48.82;99530.25;5056149;28;45975;-71
2021/11/03 04:52:22;;;;;;;;;4.67;4.00;;;;;18.36;48.89;99525.84;5056275;28;45314;-69
2021/11/03 04:54:48;;;;;;;;;4.00;4.00;;;;;18.35;48.83;99524.09;5055303;28;45384;-64
2021/11/03 04:57:18;;;;;;;;;2.33;2.33;;;;;18.36;48.65;99528.50;5056618;28;45408;-64
2021/11/03 04:59:45;;;;;;;;;5.00;3.00;;;;;18.36;48.88;99533.81;5055671;28;45383;-66
2021/11/03 05:02:11;;;;;;;;;3.00;3.00;;;;;18.36;48.71;99531.16;5055644;28;45743;-68
2021/11/03 05:04:36;;;;;;;;;2.67;2.67;;;;;18.36;48.58;99533.81;5056241;28;45663;-64
2021/11/03 05:07:02;;;;;;;;;2.67;2.67;;;;;18.36;48.74;99531.16;5056398;28;45745;-63
2021/11/03 05:09:27;;;;;;;;;3.67;3.67;;;;;18.36;48.96;99531.16;5056149;28;45691;-70
2021/11/03 05:11:53;;;;;;;;;2.67;2.67;;;;;18.35;48.75;99532.09;5056229;28;45264;-71
2021/11/03 05:14:18;;;;;;;;;2.67;2.67;;;;;18.34;48.48;99537.47;5056193;28;45606;-63
2021/11/03 05:16:44;;;;;;;;;6.67;4.00;;;;;18.35;48.88;99539.19;5056814;28;45348;-63
2021/11/03 05:19:19;;;;;;;;;2.67;2.67;;;;;18.36;48.60;99541.78;5058755;28;45329;-70
2021/11/03 05:21:46;;;;;;;;;4.33;3.00;;;;;18.35;48.91;99539.19;5059444;28;45319;-70
2021/11/03 05:24:11;;;;;;;;;3.67;3.67;;;;;18.34;48.59;99543.63;5059484;28;45398;-73
2021/11/03 05:26:36;;;;;;;;;2.33;2.33;;;;;18.35;48.51;99539.19;5059486;28;45530;-75
2021/11/03 05:29:02;;;;;;;;;3.00;3.00;;;;;18.34;48.58;99538.31;5059359;28;46399;-64
2021/11/03 05:31:28;;;;;;;;;5.00;3.67;;;;;18.35;48.57;99540.06;5058971;28;45343;-63
2021/11/03 05:33:54;;;;;;;;;6.33;4.00;;;;;18.34;48.67;99540.97;5059616;28;45367;-66
2021/11/03 05:36:24;;;;;;;;;3.67;3.00;;;;;18.33;48.70;99536.59;5059213;28;45516;-77
2021/11/03 05:38:50;;;;;;;;;4.67;4.67;;;;;18.34;48.52;99545.44;5059306;28;45458;-63
2021/11/03 05:41:15;;;;;;;;;4.00;4.00;;;;;18.34;48.82;99545.44;5059096;28;45213;-74
2021/11/03 05:43:41;;;;;;;;;4.67;4.67;;;;;18.33;48.79;99547.22;5059569;28;45404;-70
2021/11/03 05:46:07;;;;;;;;;5.00;4.33;;;;;18.34;48.72;99543.63;5059555;28;45323;-67
2021/11/03 05:48:34;;;;;;;;;4.00;4.00;;;;;18.34;48.67;99548.13;5058932;28;46087;-75
2021/11/03 05:51:00;;;;;;;;;4.33;4.33;;;;;18.33;48.85;99552.56;5058931;28;45382;-64
2021/11/03 05:53:25;;;;;;;;;4.00;4.00;;;;;18.33;48.61;99554.34;5058241;28;45735;-64
2021/11/03 05:55:51;;;;;;;;;4.67;4.67;;;;;18.33;48.61;99549.00;5059173;28;45535;-66
2021/11/03 05:58:16;;;;;;;;;4.00;4.00;;;;;18.34;48.63;99553.44;5058911;28;47114;-63
2021/11/03 06:00:41;;;;;;;;;5.33;4.33;;;;;18.34;48.89;99559.59;5058958;28;45319;-63
2021/11/03 06:03:07;;;;;;;;;4.33;4.33;;;;;18.33;48.45;99557.88;5058873;28;45224;-68
2021/11/03 06:05:33;;;;;;;;;5.00;5.00;;;;;18.34;48.68;99559.59;5059026;28;45296;-64
2021/11/03 06:08:07;;;;;;;;;3.33;3.33;;;;;18.33;48.74;99563.19;5058806;28;46014;-64
2021/11/03 06:10:38;;;;;;;;;6.00;4.33;;;;;18.34;48.59;99570.25;5058722;28;45272;-69
2021/11/03 06:13:04;;;;;;;;;6.33;4.00;;;;;18.33;48.75;99564.97;5057213;28;45381;-63
2021/11/03 06:15:32;;;;;;;;;4.00;3.00;;;;;18.33;48.56;99563.19;5058647;28;45366;-65
2021/11/03 06:17:58;;;;;;;;;5.33;5.33;;;;;18.33;48.74;99563.19;5058230;28;46124;-68
2021/11/03 06:20:24;;;;;;;;;4.67;4.67;;;;;18.32;48.79;99573.91;5058610;28;45409;-64
2021/11/03 06:22:50;;;;;;;;;5.00;5.00;;;;;18.33;49.13;99567.63;5058582;28;45282;-67
2021/11/03 06:25:17;;;;;;;;;4.33;4.33;;;;;18.33;48.82;99571.19;5040971;28;45378;-69
2021/11/03 06:27:44;;;;;;;;;4.33;4.00;;;;;18.32;48.78;99571.25;5057170;28;46092;-67
2021/11/03 06:30:14;;;;;;;;;4.67;4.67;;;;;18.32;48.92;99574.75;5056726;28;45389;-67
2021/11/03 06:32:39;;;;;;;;;5.67;4.67;;;;;18.32;48.75;99574.75;5057990;28;45256;-64
2021/11/03 06:35:06;;;;;;;;;5.67;4.67;;;;;18.33;48.82;99576.50;5058518;28;45315;-71
2021/11/03 06:37:32;;;;;;;;;7.67;5.33;;;;;18.32;48.61;99576.56;5058138;28;46120;-64
2021/11/03 06:39:57;;;;;;;;;7.67;5.33;;;;;18.33;48.71;99587.13;5058085;28;45424;-69
2021/11/03 06:42:23;;;;;;;;;5.33;5.33;;;;;18.33;48.75;99592.47;5058465;28;45272;-71
2021/11/03 06:44:48;;;;;;;;;4.33;4.33;;;;;18.34;48.69;99599.50;5058242;28;45367;-64
2021/11/03 06:47:14;;;;;;;;;6.00;5.33;;;;;18.33;48.82;99594.25;5058237;28;47199;-65
2021/11/03 06:49:40;;;;;;;;;7.00;5.67;;;;;18.34;49.12;99601.31;5058072;28;45752;-68
2021/11/03 06:52:06;;;;;;;;;6.00;6.00;;;;;18.33;48.76;99599.56;5058186;28;45339;-72
2021/11/03 06:54:32;;;;;;;;;5.67;5.67;;;;;18.34;49.09;99602.16;5058474;28;45339;-67
2021/11/03 06:56:58;;;;;;;;;4.67;4.67;;;;;18.34;48.64;99601.31;5057611;28;46064;-65
2021/11/03 06:59:24;;;;;;;;;7.67;6.33;;;;;18.34;48.66;99611.97;5057851;28;45347;-69
2021/11/03 07:01:50;;;;;;;;;5.33;5.33;;;;;18.33;48.91;99611.09;5057663;28;45220;-69
2021/11/03 07:04:15;;;;;;;;;6.33;5.33;;;;;18.35;49.03;99624.31;5057912;28;45326;-65
2021/11/03 07:06:41;;;;;;;;;5.33;5.00;;;;;18.34;49.07;99626.09;5057901;28;46169;-65
2021/11/03 07:09:07;;;;;;;;;8.00;5.33;;;;;18.34;48.99;99636.75;5057598;28;45280;-69
2021/11/03 07:11:33;;;;;;;;;8.33;8.00;;;;;18.35;49.15;99629.66;5057906;28;45506;-69
2021/11/03 07:13:59;;;;;;;;;8.67;7.67;;;;;18.34;48.96;99647.38;5057992;28;45466;-67
2021/11/03 07:16:26;;;;;;;;;8.00;6.00;;;;;18.34;49.20;99643.88;5057385;28;46904;-64
2021/11/03 07:18:52;;;;;;;;;8.00;6.67;;;;;18.34;48.99;99650.06;5057513;28;45248;-64
2021/11/03 07:21:18;;;;;;;;;6.67;6.67;;;;;18.35;49.00;99650.94;5057687;28;45371;-64
2021/11/03 07:23:43;;;;;;;;;8.00;8.00;;;;;18.35;48.56;99650.94;5058041;28;45189;-64
2021/11/03 07:26:09;;;;;;;;;6.67;6.67;;;;;18.36;48.51;99664.19;5057225;28;46352;-64
2021/11/03 07:28:36;;;;;;;;;8.00;8.00;;;;;18.35;48.64;99665.09;5057599;28;45257;-64
2021/11/03 07:31:03;;;;;;;;;9.00;6.67;;;;;18.34;48.39;99668.69;5057593;28;45351;-63
2021/11/03 07:33:28;;;;;;;;;11.33;9.33;;;;;18.34;48.65;99670.50;5057619;28;45505;-64
2021/11/03 07:35:53;;;;;;;;;7.33;7.33;;;;;18.31;48.45;99660.81;5057083;28;45389;-64
2021/11/03 07:38:19;;;;;;;;;7.67;6.33;;;;;18.34;48.49;99676.66;5057247;28;45392;-66
2021/11/03 07:40:49;;;;;;;;;7.67;7.00;;;;;18.34;48.45;99676.66;5056671;28;45467;-64
2021/11/03 07:43:16;;;;;;;;;8.00;6.67;;;;;18.35;48.64;99688.19;5057615;28;45399;-64
2021/11/03 07:45:42;;;;;;;;;8.00;7.00;;;;;18.34;48.31;99681.97;5057199;28;47332;-64
2021/11/03 07:48:09;;;;;;;;;8.67;8.00;;;;;18.34;48.26;99691.78;5057005;28;45433;-63
2021/11/03 07:50:39;;;;;;;;;6.00;6.00;;;;;18.34;48.17;99692.63;5057272;28;45410;-63
2021/11/03 07:53:07;;;;;;;;;8.00;8.00;;;;;18.33;48.13;99698.88;5057219;28;45169;-65
2021/11/03 07:55:34;;;;;;;;;8.00;7.67;;;;;18.34;48.17;99697.94;5056913;28;46324;-63
2021/11/03 07:57:59;;;;;;;;;7.67;6.67;;;;;18.34;48.20;99710.41;5056891;28;45394;-64
2021/11/03 08:00:28;;;;;;;;;7.00;7.00;;;;;18.33;48.12;99700.66;5057017;28;45465;-64
2021/11/03 08:02:54;;;;;;;;;8.33;6.67;;;;;18.33;48.04;99706.84;5057195;28;45608;-64
2021/11/03 08:05:21;;;;;;;;;7.67;6.33;;;;;18.33;48.13;99714.84;5056556;28;46109;-64
2021/11/03 08:07:46;;;;;;;;;6.67;5.00;;;;;18.33;48.08;99717.50;5056836;28;45472;-63
2021/11/03 08:10:17;;;;;;;;;8.00;8.00;;;;;18.33;47.96;99721.94;5056883;28;45501;-65
2021/11/03 08:12:43;;;;;;;;;7.00;7.00;;;;;18.32;48.03;99723.72;5057397;28;45523;-65
2021/11/03 08:15:10;;;;;;;;;8.00;6.67;;;;;18.32;47.95;99723.72;5056551;28;47068;-63
2021/11/03 08:17:36;;;;;;;;;9.33;7.00;;;;;18.32;48.05;99730.84;5056762;28;45459;-65
2021/11/03 08:20:04;;;;;;;;;10.67;8.67;;;;;18.33;48.18;99736.13;5056644;28;45359;-64
2021/11/03 08:22:32;;;;;;;;;6.67;6.67;;;;;18.33;48.06;99738.78;5056979;28;45393;-63
2021/11/03 08:24:58;;;;;;;;;6.33;6.33;;;;;18.31;47.91;99743.28;5056456;28;46313;-63
2021/11/03 08:27:23;;;;;;;;;9.67;8.67;;;;;18.31;47.84;99734.41;5056418;28;45294;-63
2021/11/03 08:29:50;;;;;;;;;8.67;7.67;;;;;18.31;47.99;99751.25;5056789;28;45343;-64
2021/11/03 08:32:20;;;;;;;;;6.00;6.00;;;;;18.31;47.84;99747.72;5056682;28;45453;-64
2021/11/03 08:34:46;;;;;;;;;6.67;6.00;;;;;18.31;47.68;99753.03;5056052;28;46525;-64
2021/11/03 08:37:15;;;;;;;;;11.67;8.33;;;;;18.31;47.87;99766.34;5056587;28;45371;-63
2021/11/03 08:39:45;;;;;;;;;7.00;7.00;;;;;18.31;47.87;99767.22;5055863;28;45444;-67
2021/11/03 08:42:10;;;;;;;;;9.67;8.00;;;;;18.31;47.70;99769.88;5056834;28;45359;-68
2021/11/03 08:44:40;;;;;;;;;6.00;5.67;;;;;18.32;47.82;99778.75;5056256;28;46230;-68
2021/11/03 08:47:06;;;;;;;;;7.67;6.00;;;;;18.32;47.59;99779.59;5056398;28;45434;-71
2021/11/03 08:49:32;;;;;;;;;8.00;8.00;;;;;18.31;47.72;99776.97;5056260;28;45412;-70
2021/11/03 08:51:58;;;;;;;;;9.00;7.67;;;;;18.30;47.58;99773.44;5058556;28;45416;-67
2021/11/03 08:54:23;;;;;;;;;7.67;6.33;;;;;18.32;47.74;99778.75;5059770;28;47128;-71
2021/11/03 08:56:49;;;;;;;;;6.33;6.33;;;;;18.30;47.66;99778.75;5059929;28;45460;-64
2021/11/03 08:59:14;;;;;;;;;6.67;6.33;;;;;18.31;47.62;99776.97;5060285;28;45369;-65
2021/11/03 09:01:40;;;;;;;;;6.67;6.67;;;;;18.30;47.72;99777.91;5059957;28;45298;-64
2021/11/03 09:04:06;;;;;;;;;6.00;6.00;;;;;18.30;47.49;99773.44;5059453;28;46789;-65
2021/11/03 09:06:33;;;;;;;;;9.67;6.67;;;;;18.30;47.57;99784.09;5059631;28;45328;-64
2021/11/03 09:08:58;;;;;;;;;6.67;6.67;;;;;18.29;47.54;99774.38;5041764;28;45371;-64
2021/11/03 09:11:25;;;;;;;;;9.00;8.00;;;;;18.28;47.56;99780.59;5059721;28;45302;-63
2021/11/03 09:13:51;;;;;;;;;7.00;7.00;;;;;18.30;47.78;99784.09;5059807;28;47078;-69
2021/11/03 09:16:17;;;;;;;;;8.00;7.67;;;;;18.29;47.38;99795.66;5059092;28;45367;-67
2021/11/03 09:18:43;;;;;;;;;7.67;7.67;;;;;18.28;47.57;99785.91;5059763;28;45405;-64
2021/11/03 09:21:09;;;;;;;;;8.33;8.33;;;;;18.29;47.36;99790.34;5059839;28;45288;-64
2021/11/03 09:23:36;;;;;;;;;6.67;6.67;;;;;18.29;47.54;99795.66;5059228;28;46164;-67
2021/11/03 09:26:01;;;;;;;;;7.00;7.00;;;;;18.28;47.51;99802.75;5059293;28;45392;-64
2021/11/03 09:28:30;;;;;;;;;7.67;7.00;;;;;18.28;47.19;99799.22;5059469;28;45369;-65
2021/11/03 09:30:57;;;;;;;;;6.67;6.00;;;;;18.30;47.57;99807.19;5059573;28;45289;-69
2021/11/03 09:33:24;;;;;;;;;6.00;6.00;;;;;18.28;47.41;99809.88;5059024;28;46716;-69
2021/11/03 09:35:51;;;;;;;;;9.00;7.00;;;;;18.28;47.21;99812.53;5058904;28;45505;-65
2021/11/03 09:38:21;;;;;;;;;10.00;8.67;;;;;18.28;47.30;99815.19;5059490;28;45245;-70
2021/11/03 09:41:01;;;;;;;;;10.33;7.67;;;;;18.28;47.66;99821.38;5059259;28;45492;-66
2021/11/03 09:43:48;;;;;;;;;7.00;7.00;;;;;18.29;47.65;99822.25;5059002;28;46303;-65
2021/11/03 09:46:18;;;;;;;;;9.00;8.00;;;;;18.28;47.43;99824.03;5059101;28;45288;-63
2021/11/03 09:48:49;;;;;;;;;7.33;6.00;;;;;18.28;47.59;99828.47;5059131;28;45343;-64
2021/11/03 09:51:19;;;;;;;;;7.00;6.67;;;;;18.27;47.55;99826.75;5059497;28;45703;-67
2021/11/03 09:53:56;;;;;;;;;8.00;6.67;;;;;18.28;47.61;99831.16;5059013;28;46971;-64
2021/11/03 09:56:34;;;;;;;;;9.33;8.00;;;;;18.30;47.42;99844.44;5058904;28;45435;-64
2021/11/03 09:59:28;;;;;;;;;7.00;7.00;;;;;18.29;47.66;99838.22;5058820;28;45205;-64
2021/11/03 10:02:24;;;;;;;;;9.67;7.00;;;;;18.28;47.46;99832.03;5053253;28;45549;-65
2021/11/03 10:05:06;;;;;;;;;6.33;6.33;;;;;18.29;47.42;99838.22;5058127;28;45299;-68
2021/11/03 10:08:02;;;;;;;;;8.67;7.67;;;;;18.29;47.52;99835.56;5058595;28;45317;-68
2021/11/03 10:10:38;;;;;;;;;10.33;10.00;;;;;18.28;47.35;99837.34;5058909;28;45316;-64
2021/11/03 10:13:20;;;;;;;;;8.00;7.00;;;;;18.28;47.36;99845.31;5058934;28;45387;-63
2021/11/03 10:16:14;;;;;;;;;6.33;6.33;;;;;18.28;47.37;99841.78;5058521;28;45448;-63
2021/11/03 10:18:51;;;;;;;;;11.00;8.00;;;;;18.27;47.30;99842.72;5021871;28;45440;-63
2021/11/03 10:21:21;;;;;;;;;8.00;8.00;;;;;18.26;47.63;99839.19;5058586;28;45563;-63
2021/11/03 10:24:06;;;;;;;;;6.33;6.33;;;;;18.27;47.29;99845.38;5058911;28;45454;-64
2021/11/03 10:26:49;;;;;;;;;12.33;8.00;;;;;18.28;47.49;99844.44;5058178;28;46977;-63
2021/11/03 10:29:24;;;;;;;;;7.67;7.33;;;;;18.27;47.31;99845.38;5058619;28;45197;-71
2021/11/03 10:32:02;;;;;;;;;8.67;8.33;;;;;18.28;47.10;99849.78;5058321;28;45200;-66
2021/11/03 10:34:42;;;;;;;;;8.67;6.00;;;;;18.27;47.22;99846.22;5058253;28;45651;-63
2021/11/03 10:37:16;;;;;;;;;8.67;8.33;;;;;18.28;47.12;99852.44;5058083;28;47115;-67
2021/11/03 10:40:12;;;;;;;;;9.67;8.00;;;;;18.27;47.20;99856.03;5058270;28;45460;-65
2021/11/03 10:42:40;;;;;;;;;8.00;6.33;;;;;18.27;47.19;99851.56;5058519;28;45155;-64
2021/11/03 10:45:15;;;;;;;;;6.67;5.67;;;;;18.27;47.29;99859.53;5058457;28;45312;-64
2021/11/03 10:47:42;;;;;;;;;7.00;7.00;;;;;18.28;47.45;99863.06;5058065;28;46251;-63
2021/11/03 10:50:41;;;;;;;;;9.67;7.00;;;;;18.28;47.12;99863.06;5056898;28;45418;-63
2021/11/03 10:53:45;;;;;;;;;7.33;6.33;;;;;18.27;47.48;99856.88;5057908;28;45220;-65
2021/11/03 10:56:27;;;;;;;;;11.00;7.00;;;;;18.27;47.43;99861.34;5058304;28;45379;-64
2021/11/03 10:59:22;;;;;;;;;8.00;7.00;;;;;18.28;47.29;99855.09;5057850;28;46334;-63
2021/11/03 11:01:48;;;;;;;;;8.00;8.00;;;;;18.28;47.35;99863.94;4956623;28;45378;-63
2021/11/03 11:04:29;;;;;;;;;6.00;6.00;;;;;18.28;47.20;99857.75;4956647;28;45676;-65
2021/11/03 11:07:00;;;;;;;;;8.00;8.00;;;;;18.28;47.24;99857.75;4956911;28;45369;-64
2021/11/03 11:09:50;;;;;;;;;10.00;8.67;;;;;18.28;47.38;99857.75;4956523;28;46517;-64
2021/11/03 11:12:34;;;;;;;;;7.00;6.67;;;;;18.27;47.25;99854.22;4956478;28;45345;-63
2021/11/03 11:15:15;;;;;;;;;9.00;7.67;;;;;18.28;47.43;99852.44;4955422;28;45315;-64
2021/11/03 11:17:51;;;;;;;;;8.00;8.00;;;;;18.28;47.41;99849.78;4956909;28;45457;-64
2021/11/03 11:20:36;;;;;;;;;7.33;7.33;;;;;18.28;47.12;99852.44;4956108;28;46345;-64
2021/11/03 11:23:19;;;;;;;;;6.33;6.33;;;;;18.27;47.28;99856.03;4956610;28;45566;-64
2021/11/03 11:26:13;;;;;;;;;6.33;6.00;;;;;18.28;47.59;99860.41;4956475;28;45519;-64
2021/11/03 11:28:50;;;;;;;;;7.67;7.00;;;;;18.26;47.14;99860.47;4956243;28;45423;-64
2021/11/03 11:31:36;;;;;;;;;9.00;7.00;;;;;18.26;47.46;99860.47;4955843;28;46403;-66
2021/11/03 11:34:39;;;;;;;;;6.67;6.33;;;;;18.24;47.37;99862.28;4956122;28;45338;-62
2021/11/03 11:37:07;;;;;;;;;8.00;7.67;;;;;18.26;47.51;99864.91;4919929;28;45489;-63
2021/11/03 11:39:42;;;;;;;;;10.00;7.00;;;;;18.27;47.26;99864.00;4995636;28;45502;-64
2021/11/03 11:42:19;;;;;;;;;8.33;8.33;;;;;18.27;47.14;99867.50;4995138;28;46869;-64